Flight Track Log - Related Links

Times and Time Zones

All times are in EDT time to prevent confusion due to time zone crossing. See the ASQ4252 flight status page for this flight to view local times or setup timezone preferences in your user account.

Time Position Orientation Groundspeed Altitude Reporting Facility
EDT Latitude Longitude Course Direction KTS MPH feet Rate Location/Type
Sun 04:21:31 PM 29.9617 -95.3436 95° East 162 186 600  Level Houston Center
Sun 04:22:50 PM 29.9072 -95.2756 133° Southeast 254 292 2,800 1,422 Climbing Houston Center
Sun 04:23:46 PM 29.8619 -95.2183 132° Southeast 264 304 3,800 1,603 Climbing Houston Center
Sun 04:24:00 PM 29.9311 -94.9962 97° East  Level FlightAware Approximate
Sun 04:24:46 PM 29.8117 -95.1522 131° Southeast 275 316 5,900  Level Houston Center
Sun 04:25:00 PM 29.9185 -94.8829 97° East  Level FlightAware Approximate
Sun 04:25:16 PM 29.7928 -95.1142 120° Southeast 285 328 7,000  Level Houston Center
Sun 04:25:47 PM 29.7931 -95.0653 90° East 309 356 8,400 2,381 Climbing Houston Center
Sun 04:26:00 PM 29.9086 -94.7694 95° East  Level FlightAware Approximate
Sun 04:26:19 PM 29.7983 -95.0167 83° East 305 351 9,500  Level Houston Center
Sun 04:27:20 PM 29.8047 -94.9117 86° East 325 374 10,600 1,317 Climbing Houston Center
Sun 04:28:22 PM 29.8158 -94.8036 83° East 360 414 12,200 1,597 Climbing Houston Center
Sun 04:29:24 PM 29.8289 -94.6756 83° East 373 429 13,900 1,597 Climbing Houston Center
Sun 04:30:26 PM 29.8406 -94.5539 84° East 381 438 15,500 1,597 Climbing Houston Center
Sun 04:31:28 PM 29.8522 -94.4319 84° East 383 441 17,200 1,694 Climbing Houston Center
Sun 04:32:30 PM 29.8628 -94.2886 85° East 376 433 19,000 1,500 Climbing Houston Center
Sun 04:33:32 PM 29.8572 -94.1681 93° East 376 433 20,300 1,161 Climbing Houston Center
Sun 04:34:34 PM 29.8539 -94.0581 92° East 380 437 21,400 1,210 Climbing Houston Center
Sun 04:35:36 PM 29.8656 -93.9111 85° East 389 448 22,800 774 Climbing Houston Center
Sun 04:36:38 PM 29.8778 -93.7858 84° East 397 457 23,000 97 Climbing Houston Center
Sun 04:37:40 PM 29.8797 -93.6547 89° East 414 476 23,000  Level Houston Center
Sun 04:38:42 PM 29.8589 -93.5264 101° East 413 475 23,000  Level Houston Center
Sun 04:39:44 PM 29.8728 -93.3908 83° East 429 494 23,000  Level Houston Center
Sun 04:40:46 PM 29.8908 -93.2228 83° East 444 511 23,000  Level Houston Center
Sun 04:41:48 PM 29.9067 -93.0811 83° East 449 517 23,000  Level Houston Center
Sun 04:42:50 PM 29.9217 -92.9383 83° East 453 521 23,000  Level Houston Center
Sun 04:43:52 PM 29.9369 -92.7967 83° East 448 516 23,000  Level Houston Center
Sun 04:44:54 PM 29.9508 -92.6536 84° East 451 519 23,000  Level Houston Center
Sun 04:45:56 PM 29.9683 -92.4814 83° East 453 521 23,000  Level Houston Center
Sun 04:46:59 PM 29.9836 -92.3367 83° East 455 524 23,000  Level Houston Center
Sun 04:48:01 PM 29.9978 -92.1917 84° East 456 525 23,000 -97 Level Houston Center
Sun 04:49:03 PM 30.0119 -92.0483 83° East 454 522 22,800 -677 Descending Houston Center
Sun 04:50:05 PM 30.0258 -91.9072 83° East 448 516 21,600 -1,016 Descending Houston Center
Sun 04:51:07 PM 30.0411 -91.7678 83° East 442 509 20,700 -1,113 Descending Houston Center
Sun 04:52:09 PM 30.0544 -91.6261 84° East 430 495 19,300 -1,548 Descending Houston Center
Sun 04:53:11 PM 30.0678 -91.4928 83° East 420 483 17,500 -2,226 Descending Houston Center
Sun 04:54:13 PM 30.0817 -91.3397 84° East 401 461 14,700 -2,323 Descending Houston Center
Sun 04:55:15 PM 30.0931 -91.2156 84° East 392 451 12,700 -1,800 Descending Houston Center
Sun 04:55:53 PM 30.1000 -91.1308 85° East 397 457 11,700 -1,030 Descending Houston Center
Sun 04:56:54 PM 30.1117 -91.0103 84° East 379 436 11,000 -787 Descending Houston Center
Sun 04:57:55 PM 30.1114 -90.9094 90° East 297 342 10,100 -1,339 Descending Houston Center
Sun 04:58:55 PM 30.0983 -90.8136 99° East 297 342 8,300 -1,636 Descending Houston Center
Sun 04:59:56 PM 30.0831 -90.7108 100° East 302 348 6,800 -1,475 Descending Houston Center
Sun 05:00:57 PM 30.0703 -90.6178 99° East 295 339 5,300 -1,435 Descending Houston Center
Sun 05:01:28 PM 30.0664 -90.5789 97° East 296 341 4,600 -1,279 Descending Houston Center
Sun 05:01:58 PM 30.0553 -90.5294 105° East 285 328 4,000 -1,258 Descending Houston Center
Sun 05:02:30 PM 30.0489 -90.4906 101° East 289 333 3,300 -1,313 Descending Houston Center

Login

Don't have an account? Register now (free) for customized features, flight alerts, and more!